Terminal Aerodrome Forecast
Issued by NWS

Home | Current Version | Previous Version | Graphics & Text | Print | Product List | Glossary On
Versions: 1 2 3 4 5 6 7 8 9 10 11 12 13 14 15 16
000
FTUS43 KMPX 242003 AAB
TAFRNH
TAF AMD
KRNH 242003Z 2420/2518 10008KT 4SM -RA BR SCT009 OVC016
     FM250300 VRB03KT 3SM -RA BR OVC007
     FM251600 25004KT P6SM OVC010=

USA.gov is the U.S. government's official web portal to all federal, state and local government web resources and services.